createdAt,value
2019-05-25T00:00:01.090Z,19
2019-05-25T00:01:01.094Z,21
2019-05-25T00:02:01.087Z,18
2019-05-25T00:03:01.090Z,17
2019-05-25T00:04:01.087Z,16
2019-05-25T00:05:01.086Z,17
2019-05-25T00:06:01.088Z,14
2019-05-25T00:07:02.067Z,13
2019-05-25T00:08:01.089Z,14
2019-05-25T00:09:01.086Z,15
2019-05-25T00:10:01.092Z,13
2019-05-25T00:11:01.087Z,15
2019-05-25T00:12:01.103Z,18
2019-05-25T00:13:01.087Z,17
2019-05-25T00:14:01.090Z,19
2019-05-25T00:15:01.092Z,19
2019-05-25T00:18:01.088Z,18
2019-05-25T00:19:01.094Z,16
2019-05-25T00:20:01.088Z,15
2019-05-25T00:22:01.090Z,14
2019-05-25T00:23:01.099Z,13
2019-05-25T00:24:11.496Z,14
2019-05-25T00:25:01.091Z,15
2019-05-25T00:27:01.088Z,16
2019-05-25T00:30:01.095Z,15
2019-05-25T00:31:01.092Z,14
2019-05-25T00:32:01.088Z,16
2019-05-25T00:33:01.089Z,17
2019-05-25T00:34:01.089Z,16
2019-05-25T00:35:01.091Z,18
2019-05-25T00:36:01.092Z,19
2019-05-25T00:37:01.088Z,18
2019-05-25T00:38:01.093Z,19
2019-05-25T00:41:01.115Z,17
2019-05-25T00:42:01.090Z,18
2019-05-25T00:45:01.096Z,17
2019-05-25T00:46:01.782Z,19
2019-05-25T00:47:01.093Z,17
2019-05-25T00:48:01.091Z,15
2019-05-25T00:49:01.094Z,13
2019-05-25T00:50:01.094Z,14
2019-05-25T00:51:01.092Z,13
2019-05-25T00:53:01.137Z,15
2019-05-25T00:54:01.096Z,17
2019-05-25T00:55:01.095Z,18
2019-05-25T00:56:01.092Z,17
2019-05-25T00:57:01.122Z,20
2019-05-25T00:58:01.145Z,18
2019-05-25T00:59:01.092Z,17
2019-05-25T01:00:01.113Z,17
2019-05-25T01:01:01.098Z,18
2019-05-25T01:02:01.093Z,15
2019-05-25T01:03:01.096Z,16
2019-05-25T01:04:01.130Z,17
2019-05-25T01:05:01.094Z,16
2019-05-25T01:06:01.094Z,15
2019-05-25T01:07:01.096Z,17
2019-05-25T01:08:01.098Z,16
2019-05-25T01:10:01.121Z,15
2019-05-25T01:11:01.096Z,17
2019-05-25T01:13:01.180Z,20
2019-05-25T01:14:01.136Z,21
2019-05-25T01:15:01.098Z,22
2019-05-25T01:16:01.099Z,20
2019-05-25T01:18:01.106Z,16
2019-05-25T01:19:01.123Z,14
2019-05-25T01:21:01.083Z,15
2019-05-25T01:22:01.084Z,16
2019-05-25T01:24:01.109Z,18
2019-05-25T01:25:01.087Z,17
2019-05-25T01:26:01.095Z,16
2019-05-25T01:27:01.087Z,17
2019-05-25T01:28:01.093Z,15
2019-05-25T01:30:01.140Z,16
2019-05-25T01:32:01.086Z,15
2019-05-25T01:33:01.089Z,16
2019-05-25T01:34:01.126Z,17
2019-05-25T01:35:01.086Z,18
2019-05-25T01:37:01.087Z,17
2019-05-25T01:38:01.090Z,16
2019-05-25T01:39:01.110Z,15
2019-05-25T01:43:01.124Z,14
2019-05-25T01:44:01.097Z,17
2019-05-25T01:45:01.087Z,17
2019-05-25T01:47:01.094Z,18
2019-05-25T01:48:01.089Z,19
2019-05-25T01:49:01.095Z,16
2019-05-25T01:51:01.103Z,15
2019-05-25T01:52:01.092Z,13
2019-05-25T01:53:01.088Z,14
2019-05-25T01:55:01.095Z,15
2019-05-25T01:59:01.093Z,17
2019-05-25T02:00:01.107Z,14
2019-05-25T02:02:01.095Z,16
2019-05-25T02:04:01.088Z,17
2019-05-25T02:05:01.109Z,18
2019-05-25T02:06:01.123Z,19
2019-05-25T02:08:01.092Z,18
2019-05-25T02:11:01.092Z,17
2019-05-25T02:13:01.095Z,16
2019-05-25T02:14:01.095Z,14
2019-05-25T02:15:01.096Z,15
2019-05-25T02:16:01.124Z,16
2019-05-25T02:17:01.718Z,17
2019-05-25T02:21:01.125Z,15
2019-05-25T02:22:01.095Z,14
2019-05-25T02:24:01.100Z,16
2019-05-25T02:25:16.223Z,15
2019-05-25T02:27:01.067Z,16
2019-05-25T02:28:01.094Z,15
2019-05-25T02:30:01.113Z,16
2019-05-25T02:31:01.127Z,17
2019-05-25T02:33:01.102Z,20
2019-05-25T02:36:01.127Z,19
2019-05-25T02:38:01.101Z,16
2019-05-25T02:39:01.094Z,15
2019-05-25T02:40:01.095Z,13
2019-05-25T02:41:01.128Z,14
2019-05-25T02:42:01.095Z,16
2019-05-25T02:43:01.101Z,17
2019-05-25T02:44:01.094Z,18
2019-05-25T02:45:01.095Z,18
2019-05-25T02:46:01.128Z,17
2019-05-25T02:47:01.105Z,16
2019-05-25T02:50:01.097Z,17
2019-05-25T02:54:01.100Z,16
2019-05-25T02:57:01.087Z,17
2019-05-25T02:59:01.082Z,15
2019-05-25T03:00:01.086Z,16
2019-05-25T03:01:01.084Z,15
2019-05-25T03:03:01.082Z,17
2019-05-25T03:04:01.087Z,18
2019-05-25T03:05:01.082Z,16
2019-05-25T03:07:01.216Z,15
2019-05-25T03:08:01.083Z,17
2019-05-25T03:09:01.087Z,16
2019-05-25T03:10:01.084Z,17
2019-05-25T03:12:01.086Z,19
2019-05-25T03:13:01.087Z,16
2019-05-25T03:14:01.086Z,17
2019-05-25T03:15:01.121Z,19
2019-05-25T03:16:01.528Z,18
2019-05-25T03:20:01.092Z,17
2019-05-25T03:21:01.085Z,18
2019-05-25T03:22:01.093Z,19
2019-05-25T03:23:01.091Z,20
2019-05-25T03:25:01.086Z,21
2019-05-25T03:26:01.086Z,23
2019-05-25T03:27:01.088Z,21
2019-05-25T03:28:01.091Z,20
2019-05-25T03:29:01.086Z,19
2019-05-25T03:30:01.090Z,19
2019-05-25T03:31:01.088Z,18
2019-05-25T03:32:01.094Z,16
2019-05-25T03:33:01.148Z,17
2019-05-25T03:34:01.102Z,18
2019-05-25T03:35:01.087Z,16
2019-05-25T03:36:01.100Z,17
2019-05-25T03:38:01.100Z,16
2019-05-25T03:39:01.086Z,18
2019-05-25T03:40:01.087Z,19
2019-05-25T03:41:01.086Z,18
2019-05-25T03:43:01.088Z,17
2019-05-25T03:45:01.088Z,17
2019-05-25T03:49:01.088Z,16
2019-05-25T03:50:02.351Z,17
2019-05-25T03:51:01.089Z,18
2019-05-25T03:53:01.092Z,20
2019-05-25T03:54:01.095Z,21
2019-05-25T03:55:01.089Z,20
2019-05-25T03:56:05.531Z,19
2019-05-25T03:58:01.092Z,18
2019-05-25T03:59:01.091Z,15
2019-05-25T04:00:01.091Z,15
2019-05-25T04:03:01.091Z,14
2019-05-25T04:04:01.095Z,15
2019-05-25T04:06:01.089Z,16
2019-05-25T04:08:01.090Z,18
2019-05-25T04:10:01.330Z,19
2019-05-25T04:11:01.092Z,20
2019-05-25T04:12:01.090Z,18
2019-05-25T04:13:01.090Z,17
2019-05-25T04:14:01.090Z,16
2019-05-25T04:15:03.173Z,16
2019-05-25T04:18:01.092Z,18
2019-05-25T04:19:01.094Z,19
2019-05-25T04:22:01.097Z,20
2019-05-25T04:23:01.097Z,18
2019-05-25T04:24:01.100Z,17
2019-05-25T04:26:01.095Z,15
2019-05-25T04:28:01.129Z,14
2019-05-25T04:30:01.096Z,14
2019-05-25T04:31:01.096Z,16
2019-05-25T04:32:01.096Z,17
2019-05-25T04:33:01.100Z,18
2019-05-25T04:35:01.100Z,17
2019-05-25T04:37:01.165Z,16
2019-05-25T04:38:01.100Z,15
2019-05-25T04:39:01.099Z,17
2019-05-25T04:40:01.102Z,16
2019-05-25T04:41:01.128Z,17
2019-05-25T04:42:01.099Z,16
2019-05-25T04:43:01.111Z,19
2019-05-25T04:45:01.100Z,21
2019-05-25T04:46:01.100Z,19
2019-05-25T04:47:01.101Z,20
2019-05-25T04:48:01.110Z,18
2019-05-25T04:50:01.102Z,17
2019-05-25T04:51:01.101Z,18
2019-05-25T04:52:01.099Z,17
2019-05-25T04:53:01.100Z,18
2019-05-25T04:55:01.107Z,16
2019-05-25T04:56:01.104Z,15
2019-05-25T04:57:01.117Z,14
2019-05-25T04:59:02.037Z,16
2019-05-25T05:00:01.090Z,17
2019-05-25T05:01:01.083Z,19
2019-05-25T05:03:01.090Z,20
2019-05-25T05:04:01.086Z,16
2019-05-25T05:06:01.095Z,15
2019-05-25T05:07:01.085Z,16
2019-05-25T05:09:01.088Z,18
2019-05-25T05:11:01.090Z,19
2019-05-25T05:15:01.093Z,18
2019-05-25T05:16:01.087Z,17
2019-05-25T05:19:01.102Z,16
2019-05-25T05:20:01.086Z,17
2019-05-25T05:21:01.093Z,14
2019-05-25T05:22:01.199Z,16
2019-05-25T05:23:01.104Z,18
2019-05-25T05:25:01.094Z,19
2019-05-25T05:26:01.089Z,21
2019-05-25T05:27:01.088Z,19
2019-05-25T05:28:01.086Z,17
2019-05-25T05:30:01.088Z,17
2019-05-25T05:31:01.087Z,16
2019-05-25T05:32:01.098Z,18
2019-05-25T05:33:01.091Z,17
2019-05-25T05:34:01.091Z,16
2019-05-25T05:35:01.089Z,15
2019-05-25T05:36:01.111Z,17
2019-05-25T05:37:01.093Z,16
2019-05-25T05:39:01.089Z,17
2019-05-25T05:42:01.093Z,15
2019-05-25T05:43:01.095Z,17
2019-05-25T05:44:01.093Z,18
2019-05-25T05:45:01.101Z,18
2019-05-25T05:46:01.092Z,17
2019-05-25T05:47:01.091Z,19
2019-05-25T05:48:01.090Z,16
2019-05-25T05:49:01.092Z,15
2019-05-25T05:53:01.109Z,19
2019-05-25T05:54:01.091Z,18
2019-05-25T05:55:01.094Z,17
2019-05-25T05:56:01.095Z,15
2019-05-25T05:58:01.092Z,13
2019-05-25T05:59:01.091Z,15
2019-05-25T06:00:01.098Z,15
2019-05-25T06:01:01.098Z,17
2019-05-25T06:02:01.091Z,18
2019-05-25T06:03:01.089Z,16
2019-05-25T06:04:01.088Z,15
2019-05-25T06:05:01.090Z,16
2019-05-25T06:06:01.091Z,14
2019-05-25T06:07:01.089Z,13
2019-05-25T06:08:01.093Z,15
2019-05-25T06:09:01.093Z,16
2019-05-25T06:10:01.094Z,15
2019-05-25T06:11:01.101Z,14
2019-05-25T06:12:01.093Z,15
2019-05-25T06:13:01.092Z,14
2019-05-25T06:14:01.102Z,13
2019-05-25T06:15:01.095Z,14
2019-05-25T06:16:01.096Z,16
2019-05-25T06:17:01.092Z,15
2019-05-25T06:18:01.093Z,16
2019-05-25T06:19:01.092Z,18
2019-05-25T06:21:01.966Z,17
2019-05-25T06:22:01.110Z,21
2019-05-25T06:23:01.123Z,20
2019-05-25T06:25:01.096Z,19
2019-05-25T06:26:01.101Z,18
2019-05-25T06:27:01.095Z,17
2019-05-25T06:28:01.095Z,18
2019-05-25T06:29:01.101Z,17
2019-05-25T06:30:01.101Z,18
2019-05-25T06:31:01.095Z,19
2019-05-25T06:32:01.096Z,18
2019-05-25T06:35:01.111Z,17
2019-05-25T06:37:01.096Z,16
2019-05-25T06:39:01.097Z,17
2019-05-25T06:41:01.097Z,15
2019-05-25T06:42:01.096Z,16
2019-05-25T06:45:01.098Z,14
2019-05-25T06:46:01.401Z,15
2019-05-25T06:47:01.098Z,14
2019-05-25T06:48:01.100Z,17
2019-05-25T06:50:01.098Z,18
2019-05-25T06:51:01.101Z,19
2019-05-25T06:52:01.099Z,18
2019-05-25T06:53:01.103Z,17
2019-05-25T06:54:06.111Z,16
2019-05-25T06:57:01.105Z,17
2019-05-25T06:58:01.118Z,15
2019-05-25T06:59:06.110Z,17
2019-05-25T07:00:01.114Z,17
2019-05-25T07:02:01.102Z,16
2019-05-25T07:04:01.238Z,18
2019-05-25T07:05:01.116Z,17
2019-05-25T07:06:01.086Z,16
2019-05-25T07:09:01.090Z,15
2019-05-25T07:10:06.086Z,16
2019-05-25T07:11:01.084Z,18
2019-05-25T07:13:01.083Z,20
2019-05-25T07:14:01.089Z,19
2019-05-25T07:15:01.090Z,17
2019-05-25T07:17:01.088Z,18
2019-05-25T07:18:01.084Z,16
2019-05-25T07:19:01.087Z,18
2019-05-25T07:21:01.091Z,17
2019-05-25T07:23:01.084Z,16
2019-05-25T07:24:01.087Z,15
2019-05-25T07:25:01.087Z,17
2019-05-25T07:26:01.092Z,18
2019-05-25T07:28:01.084Z,19
2019-05-25T07:29:01.085Z,21
2019-05-25T07:30:01.085Z,18
2019-05-25T07:31:01.087Z,19
2019-05-25T07:33:01.089Z,18
2019-05-25T07:34:01.086Z,17
2019-05-25T07:35:01.084Z,20
2019-05-25T07:36:01.089Z,19
2019-05-25T07:37:01.087Z,18
2019-05-25T07:39:01.084Z,19
2019-05-25T07:40:01.086Z,18
2019-05-25T07:41:01.115Z,17
2019-05-25T07:42:01.267Z,19
2019-05-25T07:45:01.088Z,19
2019-05-25T07:47:01.117Z,18
2019-05-25T07:48:01.109Z,17
2019-05-25T07:49:01.085Z,15
2019-05-25T07:51:02.303Z,16
2019-05-25T07:53:01.109Z,18
2019-05-25T07:54:01.087Z,19
2019-05-25T07:55:01.095Z,20
2019-05-25T07:56:01.088Z,19
2019-05-25T07:58:15.532Z,18
2019-05-25T08:00:01.060Z,19
2019-05-25T08:01:01.092Z,17
2019-05-25T08:02:01.090Z,18
2019-05-25T08:03:01.136Z,19
2019-05-25T08:05:01.090Z,17
2019-05-25T08:06:01.091Z,18
2019-05-25T08:07:01.093Z,16
2019-05-25T08:08:01.156Z,17
2019-05-25T08:11:01.514Z,16
2019-05-25T08:12:01.094Z,19
2019-05-25T08:14:01.094Z,18
2019-05-25T08:15:01.094Z,19
2019-05-25T08:16:01.097Z,20
2019-05-25T08:17:01.317Z,19
2019-05-25T08:18:01.105Z,18
2019-05-25T08:19:01.097Z,19
2019-05-25T08:22:01.096Z,18
2019-05-25T08:24:01.097Z,17
2019-05-25T08:25:06.118Z,18
2019-05-25T08:26:01.099Z,17
2019-05-25T08:27:01.101Z,16
2019-05-25T08:29:01.106Z,15
2019-05-25T08:30:01.088Z,14
2019-05-25T08:31:01.498Z,15
2019-05-25T08:33:01.086Z,17
2019-05-25T08:34:01.087Z,18
2019-05-25T08:35:01.102Z,19
2019-05-25T08:36:01.086Z,17
2019-05-25T08:37:01.087Z,16
2019-05-25T08:38:01.085Z,14
2019-05-25T08:39:02.170Z,13
2019-05-25T08:40:01.089Z,15
2019-05-25T08:41:01.089Z,16
2019-05-25T08:42:01.086Z,18
2019-05-25T08:44:04.231Z,17
2019-05-25T08:45:01.088Z,15
2019-05-25T08:46:01.085Z,14
2019-05-25T08:47:01.087Z,15
2019-05-25T08:48:01.085Z,18
2019-05-25T08:49:01.089Z,20
2019-05-25T08:51:01.086Z,21
2019-05-25T08:52:04.038Z,20
2019-05-25T08:53:01.089Z,18
2019-05-25T08:54:01.085Z,16
2019-05-25T08:55:01.111Z,17
2019-05-25T08:56:01.085Z,16
2019-05-25T08:57:01.089Z,14
2019-05-25T08:59:01.872Z,15
2019-05-25T09:00:01.102Z,15
2019-05-25T09:02:01.111Z,16
2019-05-25T09:03:01.088Z,17
2019-05-25T09:04:01.172Z,16
2019-05-25T09:07:01.109Z,15
2019-05-25T09:08:01.085Z,14
2019-05-25T09:10:01.087Z,15
2019-05-25T09:11:01.091Z,16
2019-05-25T09:13:01.108Z,15
2019-05-25T09:14:01.109Z,17
2019-05-25T09:15:01.096Z,17
2019-05-25T09:18:01.088Z,18
2019-05-25T09:19:01.117Z,16
2019-05-25T09:20:01.090Z,15
2019-05-25T09:22:02.825Z,16
2019-05-25T09:24:01.145Z,15
2019-05-25T09:25:01.090Z,16
2019-05-25T09:26:01.088Z,17
2019-05-25T09:27:02.126Z,16
2019-05-25T09:30:01.089Z,16
2019-05-25T09:31:01.089Z,15
2019-05-25T09:32:01.112Z,16
2019-05-25T09:34:01.091Z,17
2019-05-25T09:36:01.095Z,19
2019-05-25T09:37:01.113Z,17
2019-05-25T09:38:01.104Z,18
2019-05-25T09:41:01.124Z,17
2019-05-25T09:42:01.092Z,16
2019-05-25T09:43:01.093Z,14
2019-05-25T09:44:01.093Z,17
2019-05-25T09:45:03.174Z,15
2019-05-25T09:46:03.210Z,16
2019-05-25T09:47:01.099Z,17
2019-05-25T09:48:01.096Z,16
2019-05-25T09:49:01.099Z,13
2019-05-25T09:51:01.124Z,12
2019-05-25T09:53:01.128Z,14
2019-05-25T09:56:01.132Z,16
2019-05-25T09:59:01.098Z,18
2019-05-25T10:00:01.097Z,20
2019-05-25T10:01:01.171Z,18
2019-05-25T10:02:01.098Z,17
2019-05-25T10:06:10.026Z,16
2019-05-25T10:09:01.115Z,15
2019-05-25T10:10:01.086Z,14
2019-05-25T10:11:01.088Z,13
2019-05-25T10:12:01.169Z,14
2019-05-25T10:13:01.084Z,15
2019-05-25T10:14:01.084Z,16
2019-05-25T10:15:01.089Z,18
2019-05-25T10:16:01.106Z,19
2019-05-25T10:17:01.109Z,18
2019-05-25T10:19:01.085Z,17
2019-05-25T10:21:01.092Z,16
2019-05-25T10:23:01.115Z,19
2019-05-25T10:26:01.089Z,18
2019-05-25T10:28:01.110Z,14
2019-05-25T10:29:01.087Z,13
2019-05-25T10:30:01.089Z,14
2019-05-25T10:31:01.090Z,13
2019-05-25T10:32:01.113Z,14
2019-05-25T10:33:01.088Z,16
2019-05-25T10:35:01.099Z,18
2019-05-25T10:36:01.090Z,21
2019-05-25T10:37:01.124Z,22
2019-05-25T10:41:01.091Z,20
2019-05-25T10:42:01.120Z,18
2019-05-25T10:45:01.092Z,16
2019-05-25T10:47:01.093Z,18
2019-05-25T10:48:01.096Z,17
2019-05-25T10:49:01.124Z,18
2019-05-25T10:52:01.094Z,17
2019-05-25T10:54:01.183Z,16
2019-05-25T10:56:01.093Z,17
2019-05-25T10:58:01.093Z,18
2019-05-25T10:59:01.127Z,17
2019-05-25T11:00:01.098Z,17
2019-05-25T11:02:01.121Z,18
2019-05-25T11:05:02.264Z,17
2019-05-25T11:06:01.099Z,16
2019-05-25T11:07:01.121Z,14
2019-05-25T11:08:01.096Z,13
2019-05-25T11:10:01.098Z,15
2019-05-25T11:11:01.097Z,16
2019-05-25T11:12:01.121Z,18
2019-05-25T11:14:01.188Z,20
2019-05-25T11:15:01.098Z,17
2019-05-25T11:19:01.120Z,15
2019-05-25T11:20:01.112Z,16
2019-05-25T11:21:01.108Z,14
2019-05-25T11:23:01.098Z,16
2019-05-25T11:24:01.123Z,17
2019-05-25T11:25:01.105Z,19
2019-05-25T11:26:01.105Z,20
2019-05-25T11:27:01.104Z,19
2019-05-25T11:29:01.130Z,17
2019-05-25T11:30:08.790Z,16
2019-05-25T11:31:01.100Z,15
2019-05-25T11:32:04.653Z,16
2019-05-25T11:33:01.100Z,15
2019-05-25T11:34:01.137Z,16
2019-05-25T11:37:01.107Z,17
2019-05-25T11:38:01.102Z,18
2019-05-25T11:40:01.109Z,19
2019-05-25T11:41:01.090Z,21
2019-05-25T11:42:01.098Z,22
2019-05-25T11:43:01.086Z,20
2019-05-25T11:44:01.086Z,18
2019-05-25T11:45:01.121Z,19
2019-05-25T11:46:01.101Z,16
2019-05-25T11:48:01.088Z,18
2019-05-25T11:49:01.085Z,20
2019-05-25T11:50:01.109Z,17
2019-05-25T11:53:04.985Z,16
2019-05-25T11:54:01.090Z,15
2019-05-25T11:55:01.090Z,16
2019-05-25T11:56:01.087Z,19
2019-05-25T11:58:01.086Z,18
2019-05-25T12:00:01.095Z,18
2019-05-25T12:01:01.099Z,17
2019-05-25T12:04:01.088Z,18
2019-05-25T12:05:01.092Z,17
2019-05-25T12:06:01.095Z,16
2019-05-25T12:09:01.090Z,15
2019-05-25T12:10:01.105Z,17
2019-05-25T12:11:01.092Z,16
2019-05-25T12:12:01.099Z,17
2019-05-25T12:13:01.093Z,19
2019-05-25T12:15:01.118Z,18
2019-05-25T12:16:01.091Z,19
2019-05-25T12:17:01.091Z,20
2019-05-25T12:18:01.092Z,19
2019-05-25T12:19:01.094Z,20
2019-05-25T12:20:01.095Z,21
2019-05-25T12:21:01.094Z,19
2019-05-25T12:22:01.102Z,16
2019-05-25T12:23:01.155Z,15
2019-05-25T12:24:01.094Z,14
2019-05-25T12:25:06.108Z,12
2019-05-25T12:26:01.099Z,13
2019-05-25T12:28:01.094Z,14
2019-05-25T12:30:01.095Z,15
2019-05-25T12:32:04.284Z,16
2019-05-25T12:35:01.225Z,18
2019-05-25T12:39:01.119Z,19
2019-05-25T12:40:01.098Z,18
2019-05-25T12:41:01.105Z,19
2019-05-25T12:42:01.115Z,18
2019-05-25T12:43:01.127Z,17
2019-05-25T12:44:01.098Z,16
2019-05-25T12:45:01.121Z,16
2019-05-25T12:46:01.101Z,15
2019-05-25T12:47:01.097Z,13
2019-05-25T12:48:01.129Z,15
2019-05-25T12:49:01.099Z,14
2019-05-25T12:51:01.100Z,15
2019-05-25T12:52:01.100Z,17
2019-05-25T12:54:01.250Z,16
2019-05-25T12:56:01.102Z,17
2019-05-25T12:57:02.758Z,18
2019-05-25T12:58:01.105Z,16
2019-05-25T12:59:01.130Z,15
2019-05-25T13:00:14.576Z,16
2019-05-25T13:02:01.099Z,15
2019-05-25T13:04:01.197Z,18
2019-05-25T13:06:01.101Z,16
2019-05-25T13:07:01.101Z,17
2019-05-25T13:08:01.100Z,18
2019-05-25T13:09:01.135Z,19
2019-05-25T13:11:01.087Z,18
2019-05-25T13:12:01.087Z,17
2019-05-25T13:15:01.115Z,15
2019-05-25T13:17:01.088Z,16
2019-05-25T13:18:01.119Z,17
2019-05-25T13:19:01.085Z,16
2019-05-25T13:20:01.409Z,15
2019-05-25T13:24:01.251Z,16
2019-05-25T13:25:01.089Z,17
2019-05-25T13:26:01.086Z,18
2019-05-25T13:27:01.090Z,17
2019-05-25T13:28:01.087Z,15
2019-05-25T13:30:06.108Z,15
2019-05-25T13:31:11.125Z,16
2019-05-25T13:32:01.094Z,17
2019-05-25T13:34:01.221Z,18
2019-05-25T13:35:01.089Z,17
2019-05-25T13:36:01.097Z,16
2019-05-25T13:37:01.985Z,15
2019-05-25T13:38:01.094Z,16
2019-05-25T13:42:01.115Z,15
2019-05-25T13:43:01.097Z,16
2019-05-25T13:45:01.091Z,16
2019-05-25T13:46:01.121Z,17
2019-05-25T13:47:01.112Z,19
2019-05-25T13:48:01.093Z,18
2019-05-25T13:50:01.096Z,19
2019-05-25T13:52:01.117Z,18
2019-05-25T13:54:01.159Z,17
2019-05-25T13:55:01.097Z,15
2019-05-25T13:56:01.094Z,14
2019-05-25T13:57:01.124Z,15
2019-05-25T13:59:01.096Z,14
2019-05-25T14:00:01.348Z,17
2019-05-25T14:03:01.182Z,18
2019-05-25T14:04:01.096Z,16
2019-05-25T14:05:01.098Z,14
2019-05-25T14:06:01.096Z,16
2019-05-25T14:09:01.097Z,17
2019-05-25T14:10:01.097Z,18
2019-05-25T14:11:01.101Z,16
2019-05-25T14:13:01.259Z,14
2019-05-25T14:14:01.100Z,15
2019-05-25T14:15:01.100Z,13
2019-05-25T14:16:06.862Z,15
2019-05-25T14:17:01.102Z,16
2019-05-25T14:19:01.086Z,17
2019-05-25T14:25:01.150Z,18
2019-05-25T14:26:01.151Z,20
2019-05-25T14:29:01.181Z,19
2019-05-25T14:30:01.089Z,18
2019-05-25T14:31:01.091Z,17
2019-05-25T14:32:01.092Z,16
2019-05-25T14:34:01.216Z,17
2019-05-25T14:38:01.112Z,16
2019-05-25T14:39:01.096Z,15
2019-05-25T14:41:01.091Z,14
2019-05-25T14:42:01.089Z,15
2019-05-25T14:43:01.127Z,13
2019-05-25T14:45:01.090Z,15
2019-05-25T14:46:01.089Z,14
2019-05-25T14:47:01.088Z,15
2019-05-25T14:48:01.111Z,17
2019-05-25T14:49:01.085Z,16
2019-05-25T14:53:01.239Z,17
2019-05-25T14:54:01.086Z,19
2019-05-25T14:57:01.087Z,18
2019-05-25T15:00:01.092Z,18
2019-05-25T15:01:01.094Z,20
2019-05-25T15:06:01.216Z,19
2019-05-25T15:07:01.111Z,18
2019-05-25T15:09:01.088Z,17
2019-05-25T15:11:01.088Z,18
2019-05-25T15:12:01.091Z,17
2019-05-25T15:13:01.113Z,18
2019-05-25T15:14:01.091Z,19
2019-05-25T15:15:01.228Z,20
2019-05-25T15:18:01.113Z,19
2019-05-25T15:19:01.090Z,18
2019-05-25T15:20:01.093Z,17
2019-05-25T15:22:01.138Z,18
2019-05-25T15:23:01.124Z,16
2019-05-25T15:24:01.097Z,15
2019-05-25T15:26:01.099Z,13
2019-05-25T15:27:01.090Z,14
2019-05-25T15:28:01.096Z,15
2019-05-25T15:29:01.090Z,17
2019-05-25T15:30:01.090Z,15
2019-05-25T15:31:01.093Z,17
2019-05-25T15:32:01.096Z,18
2019-05-25T15:35:01.159Z,19
2019-05-25T15:36:01.100Z,17
2019-05-25T15:37:01.094Z,15
2019-05-25T15:38:01.094Z,16
2019-05-25T15:39:01.120Z,17
2019-05-25T15:40:01.094Z,16
2019-05-25T15:41:01.094Z,15
2019-05-25T15:42:01.094Z,16
2019-05-25T15:43:01.117Z,14
2019-05-25T15:44:01.099Z,15
2019-05-25T15:45:01.107Z,16
2019-05-25T15:46:01.097Z,18
2019-05-25T15:47:04.584Z,17
2019-05-25T15:48:01.123Z,19
2019-05-25T15:49:01.097Z,18
2019-05-25T15:50:01.095Z,19
2019-05-25T15:51:01.095Z,18
2019-05-25T15:52:01.095Z,17
2019-05-25T15:54:01.831Z,16
2019-05-25T15:58:01.119Z,13
2019-05-25T15:59:01.094Z,14
2019-05-25T16:00:01.105Z,14
2019-05-25T16:01:01.096Z,15
2019-05-25T16:02:01.096Z,16
2019-05-25T16:03:01.121Z,18
2019-05-25T16:04:01.094Z,19
2019-05-25T16:05:01.121Z,18
2019-05-25T16:06:01.097Z,15
2019-05-25T16:07:01.095Z,16
2019-05-25T16:09:01.117Z,15
2019-05-25T16:10:01.099Z,16
2019-05-25T16:11:01.130Z,18
2019-05-25T16:12:01.178Z,17
2019-05-25T16:15:01.192Z,15
2019-05-25T16:18:01.098Z,16
2019-05-25T16:19:01.100Z,15
2019-05-25T16:20:01.096Z,16
2019-05-25T16:21:01.100Z,17
2019-05-25T16:22:01.096Z,19
2019-05-25T16:23:01.099Z,17
2019-05-25T16:24:01.098Z,15
2019-05-25T16:25:01.096Z,16
2019-05-25T16:26:01.099Z,15
2019-05-25T16:27:01.096Z,13
2019-05-25T16:28:01.096Z,15
2019-05-25T16:29:01.095Z,17
2019-05-25T16:30:01.097Z,16
2019-05-25T16:31:01.106Z,15
2019-05-25T16:32:01.093Z,16
2019-05-25T16:33:11.379Z,15
2019-05-25T16:34:01.101Z,16
2019-05-25T16:35:01.100Z,17
2019-05-25T16:36:01.097Z,18
2019-05-25T16:38:01.293Z,17
2019-05-25T16:40:01.136Z,16
2019-05-25T16:41:01.098Z,17
2019-05-25T16:42:01.150Z,18
2019-05-25T16:45:05.175Z,19
2019-05-25T16:47:01.099Z,18
2019-05-25T16:50:01.098Z,16
2019-05-25T16:52:01.101Z,17
2019-05-25T16:53:01.098Z,16
2019-05-25T16:55:01.130Z,17
2019-05-25T16:56:01.096Z,18
2019-05-25T16:57:01.097Z,17
2019-05-25T16:59:01.098Z,18
2019-05-25T17:00:01.104Z,18
2019-05-25T17:01:01.253Z,16
2019-05-25T17:02:01.102Z,15
2019-05-25T17:03:01.100Z,16
2019-05-25T17:04:01.103Z,14
2019-05-25T17:06:01.104Z,15
2019-05-25T17:10:01.094Z,17
2019-05-25T17:12:01.083Z,19
2019-05-25T17:13:01.083Z,21
2019-05-25T17:14:01.087Z,20
2019-05-25T17:15:01.093Z,20
2019-05-25T17:17:01.085Z,18
2019-05-25T17:18:04.516Z,16
2019-05-25T17:21:01.086Z,15
2019-05-25T17:25:01.279Z,14
2019-05-25T17:26:01.083Z,16
2019-05-25T17:27:01.081Z,14
2019-05-25T17:28:01.082Z,13
2019-05-25T17:29:01.088Z,17
2019-05-25T17:30:01.085Z,17
2019-05-25T17:31:01.088Z,16
2019-05-25T17:32:01.084Z,17
2019-05-25T17:33:01.083Z,19
2019-05-25T17:34:01.102Z,17
2019-05-25T17:35:01.088Z,16
2019-05-25T17:36:01.085Z,18
2019-05-25T17:38:01.086Z,17
2019-05-25T17:40:01.085Z,16
2019-05-25T17:41:01.089Z,17
2019-05-25T17:42:01.086Z,16
2019-05-25T17:43:01.087Z,17
2019-05-25T17:44:01.094Z,18
2019-05-25T17:45:01.102Z,18
2019-05-25T17:46:01.101Z,17
2019-05-25T17:47:01.091Z,18
2019-05-25T17:48:01.097Z,17
2019-05-25T17:49:01.093Z,16
2019-05-25T17:54:01.156Z,15
2019-05-25T17:57:01.089Z,14
2019-05-25T18:00:01.091Z,15
2019-05-25T18:01:01.091Z,16
2019-05-25T18:05:01.156Z,15
2019-05-25T18:06:01.091Z,14
2019-05-25T18:07:01.094Z,15
2019-05-25T18:08:01.092Z,16
2019-05-25T18:09:06.105Z,18
2019-05-25T18:10:01.093Z,19
2019-05-25T18:12:01.095Z,18
2019-05-25T18:13:01.091Z,17
2019-05-25T18:14:06.110Z,15
2019-05-25T18:15:01.092Z,15
2019-05-25T18:16:01.099Z,13
2019-05-25T18:18:01.092Z,14
2019-05-25T18:20:01.094Z,13
2019-05-25T18:21:02.218Z,15
2019-05-25T18:22:01.095Z,16
2019-05-25T18:24:01.191Z,19
2019-05-25T18:25:01.111Z,18
2019-05-25T18:26:01.096Z,19
2019-05-25T18:29:01.141Z,15
2019-05-25T18:30:01.099Z,17
2019-05-25T18:31:01.097Z,14
2019-05-25T18:32:01.097Z,15
2019-05-25T18:33:01.097Z,14
2019-05-25T18:34:01.101Z,15
2019-05-25T18:35:01.111Z,14
2019-05-25T18:36:01.188Z,15
2019-05-25T18:38:01.099Z,17
2019-05-25T18:39:01.099Z,16
2019-05-25T18:40:01.097Z,17
2019-05-25T18:45:01.236Z,16
2019-05-25T18:47:01.098Z,15
2019-05-25T18:48:01.100Z,14
2019-05-25T18:51:01.108Z,15
2019-05-25T18:53:01.103Z,16
2019-05-25T18:54:01.100Z,17
2019-05-25T18:55:01.111Z,16
2019-05-25T18:56:01.100Z,18
2019-05-25T18:57:04.575Z,17
2019-05-25T18:59:01.107Z,15
2019-05-25T19:00:01.107Z,18
2019-05-25T19:01:01.102Z,17
2019-05-25T19:05:01.103Z,15
2019-05-25T19:06:01.110Z,16
2019-05-25T19:09:06.115Z,18
2019-05-25T19:10:01.103Z,19
2019-05-25T19:11:01.107Z,17
2019-05-25T19:13:01.174Z,14
2019-05-25T19:15:01.104Z,12
2019-05-25T19:16:01.108Z,14
2019-05-25T19:17:01.107Z,12
2019-05-25T19:18:01.181Z,14
2019-05-25T19:19:01.110Z,12
2019-05-25T19:20:01.104Z,14
2019-05-25T19:21:01.104Z,13
2019-05-25T19:22:01.103Z,16
2019-05-25T19:23:01.109Z,18
2019-05-25T19:25:01.087Z,21
2019-05-25T19:28:01.202Z,19
2019-05-25T19:29:04.654Z,18
2019-05-25T19:30:01.090Z,16
2019-05-25T19:31:01.092Z,17
2019-05-25T19:33:01.152Z,16
2019-05-25T19:34:01.087Z,15
2019-05-25T19:35:01.099Z,16
2019-05-25T19:36:01.093Z,15
2019-05-25T19:38:01.159Z,17
2019-05-25T19:41:01.102Z,16
2019-05-25T19:43:01.092Z,15
2019-05-25T19:44:01.092Z,18
2019-05-25T19:45:01.093Z,19
2019-05-25T19:46:02.122Z,20
2019-05-25T19:47:01.090Z,18
2019-05-25T19:48:01.089Z,20
2019-05-25T19:49:01.092Z,19
2019-05-25T19:51:01.089Z,17
2019-05-25T19:52:01.089Z,18
2019-05-25T19:53:01.094Z,16
2019-05-25T19:54:01.093Z,15
2019-05-25T19:55:01.091Z,14
2019-05-25T19:56:01.091Z,15
2019-05-25T19:57:01.091Z,16
2019-05-25T20:00:01.091Z,16
2019-05-25T20:01:01.088Z,17
2019-05-25T20:02:01.097Z,16
2019-05-25T20:03:01.092Z,18
2019-05-25T20:05:14.888Z,19
2019-05-25T20:08:01.097Z,20
2019-05-25T20:09:01.091Z,19
2019-05-25T20:10:01.089Z,18
2019-05-25T20:11:01.095Z,19
2019-05-25T20:12:01.089Z,20
2019-05-25T20:13:01.089Z,18
2019-05-25T20:14:01.088Z,19
2019-05-25T20:15:01.099Z,18
2019-05-25T20:16:01.103Z,17